createdAt,value
2019-01-25T00:01:23.314Z,43.40
2019-01-25T00:03:50.988Z,44.17
2019-01-25T00:06:22.932Z,44.37
2019-01-25T00:08:50.554Z,44.67
2019-01-25T00:11:18.256Z,44.30
2019-01-25T00:13:46.030Z,41.10
2019-01-25T00:16:13.650Z,43.00
2019-01-25T00:18:41.265Z,44.27
2019-01-25T00:21:08.980Z,43.43
2019-01-25T00:23:36.640Z,42.63
2019-01-25T00:26:04.614Z,42.77
2019-01-25T00:28:32.288Z,43.40
2019-01-25T00:31:00.327Z,43.17
2019-01-25T00:33:27.943Z,40.97
2019-01-25T00:35:55.737Z,42.40
2019-01-25T00:38:23.524Z,40.87
2019-01-25T00:40:51.220Z,40.67
2019-01-25T00:43:18.851Z,42.43
2019-01-25T00:45:46.441Z,43.70
2019-01-25T00:48:14.044Z,42.10
2019-01-25T00:50:41.749Z,44.40
2019-01-25T00:53:09.344Z,42.70
2019-01-25T00:55:36.995Z,42.60
2019-01-25T00:58:05.466Z,39.10
2019-01-25T01:00:33.243Z,39.70
2019-01-25T01:03:00.949Z,40.37
2019-01-25T01:05:28.555Z,41.70
2019-01-25T01:07:56.127Z,40.27
2019-01-25T01:10:23.745Z,39.40
2019-01-25T01:12:52.077Z,38.33
2019-01-25T01:15:19.829Z,39.60
2019-01-25T01:17:47.831Z,39.57
2019-01-25T01:20:16.600Z,36.80
2019-01-25T01:22:45.065Z,37.97
2019-01-25T01:25:13.644Z,38.70
2019-01-25T01:27:41.249Z,36.67
2019-01-25T01:30:15.217Z,37.33
2019-01-25T01:32:42.878Z,37.37
2019-01-25T01:35:10.665Z,37.00
2019-01-25T01:37:38.276Z,39.47
2019-01-25T01:40:10.488Z,40.13
2019-01-25T01:42:38.194Z,36.87
2019-01-25T01:45:06.138Z,37.77
2019-01-25T01:47:33.959Z,37.23
2019-01-25T01:50:01.610Z,39.27
2019-01-25T01:52:29.233Z,37.93
2019-01-25T01:54:56.809Z,36.87
2019-01-25T01:57:24.505Z,37.47
2019-01-25T01:59:52.097Z,40.23
2019-01-25T02:02:19.709Z,38.03
2019-01-25T02:04:47.339Z,37.40
2019-01-25T02:07:14.930Z,41.80
2019-01-25T02:09:42.509Z,40.97
2019-01-25T02:12:10.135Z,38.93
2019-01-25T02:14:37.735Z,40.73
2019-01-25T02:17:05.364Z,38.23
2019-01-25T02:19:33.027Z,39.20
2019-01-25T02:22:00.701Z,38.53
2019-01-25T02:24:28.315Z,40.07
2019-01-25T02:26:56.602Z,37.77
2019-01-25T02:29:24.545Z,38.80
2019-01-25T02:31:52.215Z,41.17
2019-01-25T02:34:19.826Z,40.13
2019-01-25T02:36:47.461Z,42.20
2019-01-25T02:39:15.117Z,42.53
2019-01-25T02:41:42.768Z,41.57
2019-01-25T02:44:10.411Z,41.70
2019-01-25T02:46:38.052Z,41.13
2019-01-25T02:49:05.698Z,42.30
2019-01-25T02:51:33.362Z,42.43
2019-01-25T02:54:00.945Z,41.63
2019-01-25T02:56:28.635Z,44.00
2019-01-25T02:58:56.344Z,43.83
2019-01-25T03:01:23.975Z,46.23
2019-01-25T03:03:51.676Z,49.43
2019-01-25T03:06:19.330Z,44.83
2019-01-25T03:08:46.975Z,47.30
2019-01-25T03:11:14.597Z,46.57
2019-01-25T03:13:42.206Z,46.13
2019-01-25T03:16:09.810Z,45.13
2019-01-25T03:18:37.469Z,48.50
2019-01-25T03:21:05.172Z,46.93
2019-01-25T03:23:32.752Z,45.77
2019-01-25T03:26:00.397Z,46.83
2019-01-25T03:28:28.036Z,47.43
2019-01-25T03:30:55.647Z,46.40
2019-01-25T03:33:23.322Z,45.47
2019-01-25T03:35:50.961Z,44.63
2019-01-25T03:38:18.601Z,49.63
2019-01-25T03:40:46.212Z,44.30
2019-01-25T03:43:13.860Z,44.67
2019-01-25T03:45:41.436Z,44.13
2019-01-25T03:48:15.247Z,39.07
2019-01-25T03:50:42.835Z,38.37
2019-01-25T03:53:10.540Z,40.43
2019-01-25T03:55:38.189Z,35.70
2019-01-25T03:58:05.788Z,38.20
2019-01-25T04:00:33.393Z,34.40
2019-01-25T04:03:01.056Z,31.13
2019-01-25T04:05:28.668Z,33.10
2019-01-25T04:07:56.337Z,32.93
2019-01-25T04:10:25.881Z,32.87
2019-01-25T04:12:53.482Z,33.10
2019-01-25T04:15:23.794Z,34.03
2019-01-25T04:17:51.373Z,33.47
2019-01-25T04:20:19.349Z,33.43
2019-01-25T04:22:47.116Z,34.17
2019-01-25T04:25:17.467Z,33.93
2019-01-25T04:27:45.124Z,33.63
2019-01-25T04:30:15.611Z,32.50
2019-01-25T04:32:43.903Z,31.77
2019-01-25T04:35:11.701Z,31.20
2019-01-25T04:37:39.425Z,32.97
2019-01-25T04:40:09.523Z,31.13
2019-01-25T04:42:37.131Z,31.90
2019-01-25T04:45:05.814Z,31.50
2019-01-25T04:47:33.520Z,33.60
2019-01-25T04:50:01.225Z,33.27
2019-01-25T04:52:28.867Z,32.80
2019-01-25T04:54:56.517Z,31.47
2019-01-25T04:57:24.926Z,32.47
2019-01-25T04:59:52.525Z,31.10
2019-01-25T05:02:20.195Z,37.23
2019-01-25T05:04:47.861Z,29.13
2019-01-25T05:07:15.478Z,28.13
2019-01-25T05:09:43.101Z,29.50
2019-01-25T05:12:10.735Z,30.70
2019-01-25T05:14:38.416Z,32.67
2019-01-25T05:17:10.433Z,33.13
2019-01-25T05:19:39.069Z,32.70
2019-01-25T05:22:06.930Z,31.33
2019-01-25T05:24:35.139Z,30.53
2019-01-25T05:27:02.789Z,30.80
2019-01-25T05:29:48.059Z,28.10
2019-01-25T05:32:15.690Z,37.27
2019-01-25T05:34:43.324Z,32.80
2019-01-25T05:37:12.522Z,31.17
2019-01-25T05:39:40.151Z,30.47
2019-01-25T05:42:07.947Z,31.30
2019-01-25T05:44:35.562Z,32.67
2019-01-25T05:47:08.311Z,32.97
2019-01-25T05:49:35.957Z,31.17
2019-01-25T05:52:04.489Z,32.03
2019-01-25T05:54:32.059Z,30.77
2019-01-25T05:56:59.608Z,32.67
2019-01-25T05:59:27.182Z,30.03
2019-01-25T06:01:54.799Z,31.27
2019-01-25T06:04:22.392Z,31.90
2019-01-25T06:06:53.655Z,30.97
2019-01-25T06:09:21.416Z,32.93
2019-01-25T06:11:48.994Z,31.17
2019-01-25T06:14:16.641Z,30.17
2019-01-25T06:16:44.371Z,29.87
2019-01-25T06:19:12.024Z,29.47
2019-01-25T06:21:39.886Z,28.83
2019-01-25T06:24:07.502Z,31.03
2019-01-25T06:26:43.910Z,31.67
2019-01-25T06:29:11.519Z,31.17
2019-01-25T06:31:39.155Z,29.77
2019-01-25T06:34:06.778Z,31.30
2019-01-25T06:36:42.869Z,30.23
2019-01-25T06:39:10.614Z,31.00
2019-01-25T06:41:43.979Z,29.93
2019-01-25T06:44:09.887Z,32.40
2019-01-25T06:46:39.555Z,33.77
2019-01-25T06:49:07.141Z,33.23
2019-01-25T06:51:34.716Z,31.70
2019-01-25T06:54:02.562Z,31.67
2019-01-25T06:56:31.280Z,34.57
2019-01-25T06:59:10.254Z,32.90
2019-01-25T07:01:56.629Z,32.00
2019-01-25T07:04:24.277Z,34.80
2019-01-25T07:06:51.838Z,33.27
2019-01-25T07:09:19.425Z,33.20
2019-01-25T07:11:51.631Z,32.73
2019-01-25T07:14:18.794Z,33.30
2019-01-25T07:16:47.402Z,33.27
2019-01-25T07:19:15.114Z,34.13
2019-01-25T07:21:42.735Z,34.47
2019-01-25T07:24:10.318Z,35.57
2019-01-25T07:26:38.366Z,35.17
2019-01-25T07:29:06.037Z,34.07
2019-01-25T07:31:33.698Z,33.80
2019-01-25T07:34:01.298Z,34.33
2019-01-25T07:36:30.226Z,35.00
2019-01-25T07:38:57.857Z,34.13
2019-01-25T07:41:25.426Z,33.70
2019-01-25T07:43:53.273Z,34.43
2019-01-25T07:46:20.781Z,33.33
2019-01-25T07:48:48.355Z,35.90
2019-01-25T07:51:16.921Z,34.53
2019-01-25T07:53:44.525Z,36.03
2019-01-25T07:56:12.136Z,33.73
2019-01-25T07:58:41.956Z,33.43
2019-01-25T08:01:09.572Z,34.33
2019-01-25T08:03:37.251Z,33.57
2019-01-25T08:06:04.852Z,33.30
2019-01-25T08:08:34.396Z,33.37
2019-01-25T08:11:02.039Z,33.23
2019-01-25T08:13:30.152Z,34.73
2019-01-25T08:15:57.816Z,34.67
2019-01-25T08:18:25.395Z,35.17
2019-01-25T08:20:52.965Z,35.47
2019-01-25T08:23:20.626Z,34.50
2019-01-25T08:25:48.206Z,36.47
2019-01-25T08:28:15.764Z,38.03
2019-01-25T08:30:43.314Z,36.10
2019-01-25T08:33:13.141Z,30.43
2019-01-25T08:35:40.821Z,32.10
2019-01-25T08:38:18.121Z,30.70
2019-01-25T08:40:49.213Z,32.10
2019-01-25T08:43:16.771Z,29.33
2019-01-25T08:45:44.543Z,30.03
2019-01-25T08:48:14.293Z,33.60
2019-01-25T08:50:41.838Z,37.73
2019-01-25T08:53:09.436Z,38.97
2019-01-25T08:55:37.018Z,33.07
2019-01-25T08:58:05.521Z,30.97
2019-01-25T09:00:33.235Z,29.30
2019-01-25T09:03:00.862Z,26.40
2019-01-25T09:05:28.500Z,25.57
2019-01-25T09:07:56.147Z,29.13
2019-01-25T09:10:23.774Z,35.60
2019-01-25T09:12:51.385Z,29.40
2019-01-25T09:15:22.799Z,32.17
2019-01-25T09:17:50.457Z,33.63
2019-01-25T09:20:19.332Z,29.90
2019-01-25T09:22:47.239Z,29.90
2019-01-25T09:25:15.113Z,27.70
2019-01-25T09:27:42.683Z,25.67
2019-01-25T09:30:18.156Z,27.67
2019-01-25T09:32:45.741Z,27.17
2019-01-25T09:35:13.656Z,26.17
2019-01-25T09:37:41.295Z,27.30
2019-01-25T09:40:11.998Z,26.47
2019-01-25T09:42:39.617Z,27.17
2019-01-25T09:45:08.747Z,26.40
2019-01-25T09:47:36.348Z,25.33
2019-01-25T09:50:05.484Z,26.63
2019-01-25T09:52:33.172Z,28.33
2019-01-25T09:55:00.764Z,26.93
2019-01-25T09:57:28.471Z,26.40
2019-01-25T09:59:56.108Z,24.83
2019-01-25T10:02:23.703Z,26.50
2019-01-25T10:04:51.374Z,25.90
2019-01-25T10:07:19.016Z,27.50
2019-01-25T10:09:46.614Z,31.37
2019-01-25T10:12:14.198Z,31.17
2019-01-25T10:14:41.871Z,29.50
2019-01-25T10:17:09.829Z,30.43
2019-01-25T10:19:37.470Z,28.73
2019-01-25T10:22:05.035Z,30.03
2019-01-25T10:24:32.623Z,31.37
2019-01-25T10:27:00.186Z,29.23
2019-01-25T10:29:27.870Z,30.07
2019-01-25T10:31:55.471Z,30.53
2019-01-25T10:34:23.133Z,28.13
2019-01-25T10:36:50.836Z,30.10
2019-01-25T10:39:18.500Z,29.70
2019-01-25T10:41:46.111Z,30.07
2019-01-25T10:44:13.728Z,28.63
2019-01-25T10:46:41.322Z,30.63
2019-01-25T10:49:08.935Z,28.47
2019-01-25T10:51:36.558Z,31.90
2019-01-25T10:54:04.702Z,30.47
2019-01-25T10:56:32.813Z,28.10
2019-01-25T10:59:00.430Z,28.67
2019-01-25T11:01:27.962Z,27.33
2019-01-25T11:03:55.535Z,27.13
2019-01-25T11:06:23.138Z,25.87
2019-01-25T11:08:52.992Z,26.87
2019-01-25T11:11:20.623Z,27.13
2019-01-25T11:13:48.267Z,25.73
2019-01-25T11:16:15.897Z,25.57
2019-01-25T11:18:43.624Z,26.17
2019-01-25T11:21:11.357Z,28.10
2019-01-25T11:23:38.946Z,25.67
2019-01-25T11:26:06.489Z,26.90
2019-01-25T11:28:34.108Z,27.20
2019-01-25T11:31:01.801Z,26.23
2019-01-25T11:33:29.430Z,25.27
2019-01-25T11:35:56.998Z,26.73
2019-01-25T11:38:24.531Z,24.17
2019-01-25T11:40:52.096Z,24.37
2019-01-25T11:43:19.707Z,26.13
2019-01-25T11:45:47.295Z,26.07
2019-01-25T11:48:18.515Z,28.07
2019-01-25T11:50:46.117Z,25.40
2019-01-25T11:53:13.751Z,26.00
2019-01-25T11:55:41.336Z,25.70
2019-01-25T11:58:09.026Z,23.50
2019-01-25T12:00:37.739Z,24.60
2019-01-25T12:03:05.317Z,26.57
2019-01-25T12:05:32.933Z,23.50
2019-01-25T12:08:00.487Z,25.10
2019-01-25T12:10:29.145Z,22.37
2019-01-25T12:12:56.740Z,23.00
2019-01-25T12:15:24.465Z,22.03
2019-01-25T12:17:52.139Z,21.47
2019-01-25T12:20:24.630Z,22.17
2019-01-25T12:22:52.260Z,21.27
2019-01-25T12:25:19.888Z,22.33
2019-01-25T12:27:47.441Z,21.60
2019-01-25T12:30:26.957Z,23.73
2019-01-25T12:32:54.544Z,22.23
2019-01-25T12:35:22.297Z,23.93
2019-01-25T12:37:49.976Z,22.83
2019-01-25T12:40:17.583Z,23.90
2019-01-25T12:42:45.238Z,24.97
2019-01-25T12:45:16.178Z,26.37
2019-01-25T12:47:43.769Z,24.80
2019-01-25T12:50:14.616Z,26.50
2019-01-25T12:52:42.236Z,24.87
2019-01-25T12:55:10.374Z,28.10
2019-01-25T12:57:38.182Z,25.03
2019-01-25T13:00:08.694Z,27.07
2019-01-25T13:02:36.266Z,27.00
2019-01-25T13:05:06.926Z,28.57
2019-01-25T13:07:34.476Z,27.20
2019-01-25T13:10:02.040Z,28.63
2019-01-25T13:12:29.720Z,27.63
2019-01-25T13:14:59.297Z,30.43
2019-01-25T13:17:26.927Z,29.73
2019-01-25T13:19:54.585Z,28.33
2019-01-25T13:22:22.146Z,29.87
2019-01-25T13:24:49.719Z,27.07
2019-01-25T13:27:17.343Z,26.97
2019-01-25T13:29:44.989Z,26.33
2019-01-25T13:32:14.642Z,28.10
2019-01-25T13:34:42.002Z,25.13
2019-01-25T13:37:09.624Z,27.30
2019-01-25T13:39:37.259Z,25.60
2019-01-25T13:42:04.912Z,25.57
2019-01-25T13:44:32.544Z,24.67
2019-01-25T13:47:07.773Z,25.37
2019-01-25T13:49:35.406Z,23.00
2019-01-25T13:52:03.012Z,26.07
2019-01-25T13:54:30.564Z,25.17
2019-01-25T13:57:00.508Z,25.53
2019-01-25T13:59:28.074Z,25.60
2019-01-25T14:01:56.238Z,28.13
2019-01-25T14:04:23.891Z,25.33
2019-01-25T14:06:51.866Z,26.20
2019-01-25T14:09:19.449Z,26.90
2019-01-25T14:11:47.060Z,30.80
2019-01-25T14:14:14.665Z,29.80
2019-01-25T14:16:42.313Z,28.33
2019-01-25T14:19:09.947Z,27.43
2019-01-25T14:21:37.578Z,30.10
2019-01-25T14:24:05.157Z,25.80
2019-01-25T14:26:36.450Z,31.50
2019-01-25T14:29:04.445Z,28.10
2019-01-25T14:31:34.851Z,31.10
2019-01-25T14:34:02.556Z,29.43
2019-01-25T14:36:30.147Z,27.87
2019-01-25T14:38:57.857Z,29.77
2019-01-25T14:41:25.597Z,27.97
2019-01-25T14:43:54.689Z,29.30
2019-01-25T14:46:22.594Z,26.87
2019-01-25T14:48:50.207Z,28.70
2019-01-25T14:51:17.825Z,26.10
2019-01-25T14:53:45.496Z,26.03
2019-01-25T14:56:13.107Z,26.03
2019-01-25T14:58:40.730Z,27.20
2019-01-25T15:01:08.341Z,25.47
2019-01-25T15:03:36.005Z,26.77
2019-01-25T15:06:03.740Z,24.50
2019-01-25T15:08:31.501Z,24.97
2019-01-25T15:10:59.183Z,25.07
2019-01-25T15:13:26.743Z,25.90
2019-01-25T15:15:54.393Z,26.13
2019-01-25T15:18:22.004Z,23.60
2019-01-25T15:20:49.682Z,25.53
2019-01-25T15:23:17.311Z,24.03
2019-01-25T15:25:44.920Z,23.50
2019-01-25T15:28:12.546Z,22.00
2019-01-25T15:30:40.285Z,22.63
2019-01-25T15:33:08.048Z,22.07
2019-01-25T15:35:35.717Z,22.40
2019-01-25T15:38:03.380Z,21.03
2019-01-25T15:40:31.401Z,22.37
2019-01-25T15:42:59.061Z,19.20
2019-01-25T15:45:26.604Z,21.00
2019-01-25T15:47:54.299Z,20.50
2019-01-25T15:50:31.937Z,20.07
2019-01-25T15:52:59.635Z,20.33
2019-01-25T15:55:27.634Z,18.90
2019-01-25T15:57:55.608Z,20.10
2019-01-25T16:00:24.504Z,18.33
2019-01-25T16:02:52.376Z,19.57
2019-01-25T16:05:20.870Z,19.40
2019-01-25T16:07:56.764Z,21.67
2019-01-25T16:10:24.443Z,20.63
2019-01-25T16:12:52.461Z,19.33
2019-01-25T16:15:24.948Z,18.30
2019-01-25T16:17:53.272Z,18.23
2019-01-25T16:20:20.828Z,17.53
2019-01-25T16:22:48.634Z,18.53
2019-01-25T16:25:18.796Z,16.53
2019-01-25T16:27:46.646Z,18.33
2019-01-25T16:30:20.020Z,17.40
2019-01-25T16:32:47.666Z,16.90
2019-01-25T16:35:15.814Z,17.37
2019-01-25T16:37:43.394Z,15.27
2019-01-25T16:40:13.387Z,16.77
2019-01-25T16:42:41.060Z,16.63
2019-01-25T16:45:12.842Z,14.67
2019-01-25T16:47:40.478Z,14.73
2019-01-25T16:50:08.890Z,14.70
2019-01-25T16:52:37.964Z,14.20
2019-01-25T16:55:07.364Z,13.87
2019-01-25T16:57:35.084Z,13.57
2019-01-25T17:00:04.298Z,14.20
2019-01-25T17:02:31.972Z,15.30
2019-01-25T17:04:59.656Z,14.93
2019-01-25T17:07:27.336Z,13.50
2019-01-25T17:09:54.945Z,15.50
2019-01-25T17:12:22.588Z,13.87
2019-01-25T17:14:50.252Z,15.57
2019-01-25T17:17:20.823Z,14.10
2019-01-25T17:19:48.439Z,15.70
2019-01-25T17:22:16.048Z,14.60
2019-01-25T17:24:43.711Z,15.70
2019-01-25T17:27:11.351Z,15.43
2019-01-25T17:29:39.029Z,16.10
2019-01-25T17:32:06.625Z,15.33
2019-01-25T17:34:34.213Z,17.10
2019-01-25T17:37:01.920Z,16.50
2019-01-25T17:39:29.641Z,17.13
2019-01-25T17:41:57.318Z,16.17
2019-01-25T17:44:24.993Z,17.13
2019-01-25T17:46:52.599Z,14.67
2019-01-25T17:49:20.236Z,16.70
2019-01-25T17:51:47.859Z,16.53
2019-01-25T17:54:15.625Z,17.77
2019-01-25T17:56:43.327Z,16.73
2019-01-25T17:59:11.083Z,17.10
2019-01-25T18:01:39.343Z,18.83
2019-01-25T18:04:07.083Z,17.27
2019-01-25T18:06:34.660Z,19.37
2019-01-25T18:09:05.798Z,17.30
2019-01-25T18:11:33.444Z,19.53
2019-01-25T18:14:31.356Z,17.97
2019-01-25T18:16:58.988Z,19.50
2019-01-25T18:19:26.600Z,20.63
2019-01-25T18:21:54.280Z,19.83
2019-01-25T18:24:22.929Z,21.60
2019-01-25T18:26:50.586Z,20.43
2019-01-25T18:29:29.220Z,21.53
2019-01-25T18:31:56.871Z,20.10
2019-01-25T18:34:24.516Z,21.70
2019-01-25T18:36:52.143Z,21.93
2019-01-25T18:39:19.783Z,21.80
2019-01-25T18:41:47.528Z,21.13
2019-01-25T18:44:15.165Z,21.60
2019-01-25T18:46:50.177Z,20.03
2019-01-25T18:49:18.333Z,22.73
2019-01-25T18:51:45.948Z,20.80
2019-01-25T18:54:13.622Z,22.53
2019-01-25T18:56:44.272Z,20.43
2019-01-25T18:59:11.850Z,21.67
2019-01-25T19:01:40.767Z,20.77
2019-01-25T19:04:08.381Z,23.17
2019-01-25T19:06:36.036Z,20.90
2019-01-25T19:09:06.668Z,22.30
2019-01-25T19:11:35.377Z,20.30
2019-01-25T19:14:03.536Z,24.53
2019-01-25T19:16:31.252Z,22.27
2019-01-25T19:18:58.968Z,23.43
2019-01-25T19:21:26.638Z,24.20
2019-01-25T19:23:54.275Z,21.83
2019-01-25T19:26:29.374Z,22.53
2019-01-25T19:28:57.441Z,23.90
2019-01-25T19:31:32.411Z,21.90
2019-01-25T19:34:01.788Z,23.80
2019-01-25T19:36:29.406Z,23.53
2019-01-25T19:38:57.211Z,23.70
2019-01-25T19:41:26.147Z,23.90
2019-01-25T19:43:53.782Z,24.17
2019-01-25T19:46:21.386Z,22.33
2019-01-25T19:48:50.623Z,24.57
2019-01-25T19:51:18.372Z,23.00
2019-01-25T19:53:49.964Z,21.43
2019-01-25T19:56:56.750Z,21.13
2019-01-25T19:59:24.375Z,22.60
2019-01-25T20:02:00.890Z,22.43
2019-01-25T20:04:58.390Z,24.23
2019-01-25T20:07:26.183Z,22.83
2019-01-25T20:09:53.852Z,22.60
2019-01-25T20:12:21.548Z,21.07
2019-01-25T20:14:49.235Z,24.43
2019-01-25T20:17:17.143Z,21.17
2019-01-25T20:19:44.712Z,22.27
2019-01-25T20:22:17.890Z,20.90
2019-01-25T20:24:56.716Z,19.87
2019-01-25T20:27:27.547Z,21.90
2019-01-25T20:29:55.237Z,20.80
2019-01-25T20:32:26.963Z,21.30
2019-01-25T20:34:54.538Z,21.67
2019-01-25T20:37:22.219Z,20.07
2019-01-25T20:40:05.980Z,20.20
2019-01-25T20:42:36.378Z,21.23
2019-01-25T20:45:05.912Z,21.03
2019-01-25T20:47:33.555Z,21.90
2019-01-25T20:50:01.363Z,20.20
2019-01-25T20:52:29.013Z,21.67
2019-01-25T20:54:56.650Z,20.53
2019-01-25T20:57:24.291Z,20.30
2019-01-25T20:59:51.907Z,19.97
2019-01-25T21:02:25.137Z,22.83
2019-01-25T21:04:52.835Z,20.37
2019-01-25T21:07:28.249Z,22.00
2019-01-25T21:09:55.857Z,22.17
2019-01-25T21:12:23.426Z,21.83
2019-01-25T21:14:51.179Z,21.30
2019-01-25T21:17:18.939Z,23.47
2019-01-25T21:19:46.513Z,22.53
2019-01-25T21:22:14.174Z,22.37
2019-01-25T21:24:41.824Z,22.90
2019-01-25T21:27:09.522Z,21.60
2019-01-25T21:29:37.231Z,22.63
2019-01-25T21:32:04.947Z,22.20
2019-01-25T21:34:32.577Z,23.07
2019-01-25T21:37:00.322Z,22.03
2019-01-25T21:39:27.991Z,21.80
2019-01-25T21:41:59.812Z,22.90
2019-01-25T21:44:27.593Z,23.40
2019-01-25T21:46:57.899Z,25.23
2019-01-25T21:49:25.623Z,24.27
2019-01-25T21:51:53.266Z,21.73
2019-01-25T21:54:22.358Z,23.07
2019-01-25T21:56:50.082Z,21.63
2019-01-25T21:59:17.828Z,22.17
2019-01-25T22:01:45.498Z,21.90
2019-01-25T22:04:13.167Z,23.80
2019-01-25T22:06:41.287Z,23.97
2019-01-25T22:09:09.364Z,22.57
2019-01-25T22:11:37.144Z,22.03
2019-01-25T22:14:05.082Z,21.70
2019-01-25T22:16:35.952Z,23.10
2019-01-25T22:19:03.676Z,21.50
2019-01-25T22:21:37.633Z,22.70
2019-01-25T22:24:05.224Z,22.10
2019-01-25T22:26:32.972Z,23.00
2019-01-25T22:29:01.073Z,22.30
2019-01-25T22:31:33.498Z,22.27
2019-01-25T22:34:01.201Z,22.77
2019-01-25T22:36:28.859Z,22.07
2019-01-25T22:38:56.502Z,23.10
2019-01-25T22:41:24.141Z,23.60
2019-01-25T22:43:52.355Z,22.83
2019-01-25T22:46:20.049Z,23.30
2019-01-25T22:48:47.740Z,23.30
2019-01-25T22:51:15.387Z,22.93
2019-01-25T22:53:43.054Z,23.23
2019-01-25T22:56:10.744Z,22.87
2019-01-25T22:58:38.375Z,23.67
2019-01-25T23:01:25.609Z,22.37
2019-01-25T23:04:27.855Z,23.37
2019-01-25T23:07:06.152Z,22.77
2019-01-25T23:09:36.836Z,24.10
2019-01-25T23:12:04.907Z,22.17
2019-01-25T23:14:32.542Z,24.20
2019-01-25T23:17:08.465Z,24.73
2019-01-25T23:19:36.071Z,25.00
2019-01-25T23:22:04.319Z,24.27
2019-01-25T23:24:31.881Z,25.03
2019-01-25T23:26:59.457Z,24.97
2019-01-25T23:29:27.158Z,25.03
2019-01-25T23:31:54.749Z,24.43
2019-01-25T23:34:22.338Z,25.20
2019-01-25T23:36:49.964Z,25.53
2019-01-25T23:39:17.652Z,23.90
2019-01-25T23:41:45.424Z,24.33
2019-01-25T23:44:13.005Z,24.97
2019-01-25T23:46:44.611Z,24.67
2019-01-25T23:49:12.308Z,25.10
2019-01-25T23:51:39.961Z,25.23
2019-01-25T23:54:07.609Z,26.50
2019-01-25T23:56:35.202Z,25.57
2019-01-25T23:59:02.790Z,24.27
